createdAt,value
2019-02-20T09:12:13.909Z,2.17
2019-02-20T09:15:03.336Z,2.30
2019-02-20T09:17:52.333Z,1.50
2019-02-20T09:20:41.660Z,1.67
2019-02-20T09:23:30.846Z,2.10
2019-02-20T09:26:19.703Z,1.90
2019-02-20T09:29:08.901Z,1.90
2019-02-20T09:31:57.606Z,2.20
2019-02-20T09:34:46.452Z,2.20
2019-02-20T09:37:36.268Z,2.22
2019-02-20T09:40:38.305Z,2.80
2019-02-20T09:43:32.358Z,4.20
2019-02-20T09:46:21.213Z,2.70
2019-02-20T09:49:10.707Z,4.00
2019-02-20T09:51:59.354Z,5.33
2019-02-20T09:54:48.450Z,5.17
2019-02-20T09:57:37.289Z,4.40
2019-02-20T10:00:26.132Z,2.80
2019-02-20T10:03:15.288Z,2.50
2019-02-20T10:06:04.748Z,2.50
2019-02-20T10:08:53.561Z,2.30
2019-02-20T10:11:42.489Z,2.80
2019-02-20T10:14:31.467Z,2.95
2019-02-20T10:17:20.454Z,2.90
2019-02-20T10:20:10.911Z,2.43
2019-02-20T10:22:59.948Z,3.07
2019-02-20T10:25:49.071Z,2.77
2019-02-20T10:28:38.161Z,3.23
2019-02-20T10:31:26.986Z,2.60
2019-02-20T11:21:29.500Z,1.70
2019-02-20T11:24:19.745Z,2.40
2019-02-20T11:27:08.319Z,1.70
2019-02-20T11:30:00.293Z,1.60
2019-02-20T11:32:49.169Z,1.60
2019-02-20T11:35:38.931Z,1.20
2019-02-20T11:38:30.999Z,1.57
2019-02-20T11:41:21.887Z,1.80
2019-02-20T11:44:20.773Z,1.60
2019-02-20T11:47:06.430Z,1.53
2019-02-20T11:49:55.582Z,1.33
2019-02-20T11:52:46.068Z,1.13
2019-02-20T11:55:34.820Z,1.27
2019-02-20T11:58:23.939Z,1.00
2019-02-20T12:01:13.327Z,1.15
2019-02-20T12:04:02.088Z,1.70
2019-02-20T12:06:52.069Z,1.50
2019-02-20T12:09:41.559Z,1.35
2019-02-20T12:12:34.999Z,1.20
2019-02-20T12:24:43.600Z,0.83
2019-02-20T12:27:33.154Z,1.40
2019-02-20T12:30:22.988Z,1.32
2019-02-20T12:33:11.797Z,1.27
2019-02-20T12:36:02.307Z,1.10
2019-02-20T12:38:56.687Z,1.00
2019-02-20T12:41:45.015Z,1.10
2019-02-20T12:44:33.500Z,1.20
2019-02-20T12:47:22.282Z,1.30
2019-02-20T12:50:14.079Z,1.20
2019-02-20T12:53:02.493Z,1.23
2019-02-20T12:55:51.116Z,1.07
2019-02-20T12:58:39.898Z,1.00
2019-02-20T13:01:29.398Z,0.90
2019-02-20T13:04:18.369Z,1.10
2019-02-20T13:07:07.519Z,1.50
2019-02-20T13:09:55.859Z,1.20
2019-02-20T13:12:44.575Z,1.17
2019-02-20T13:15:33.648Z,1.13
2019-02-20T13:18:25.708Z,1.20
2019-02-20T13:21:14.367Z,1.12
2019-02-20T13:24:05.696Z,1.20
2019-02-20T13:29:43.820Z,1.00
2019-02-20T13:32:32.798Z,1.20
2019-02-20T13:35:21.869Z,1.20
2019-02-20T13:38:10.051Z,1.57
2019-02-20T13:41:00.441Z,1.03
2019-02-20T13:43:49.677Z,1.60
2019-02-20T13:46:39.889Z,1.60
2019-02-20T13:49:29.229Z,1.47
2019-02-20T13:52:18.058Z,1.50
2019-02-20T13:55:07.028Z,1.50
2019-02-20T13:57:55.978Z,1.22
2019-02-20T14:00:48.130Z,1.10
2019-02-20T14:03:41.360Z,1.20
2019-02-20T14:06:30.026Z,1.20
2019-02-20T14:09:18.676Z,1.40
2019-02-20T14:12:07.287Z,1.40
2019-02-20T14:14:57.002Z,1.10
2019-02-20T14:17:45.786Z,1.13
2019-02-20T14:20:34.989Z,1.00
2019-02-20T14:23:25.615Z,1.40
2019-02-20T14:26:14.289Z,1.60
2019-02-20T14:29:03.370Z,1.40
2019-02-20T14:31:52.595Z,1.20
2019-02-20T14:34:40.935Z,1.10
2019-02-20T14:37:29.707Z,1.30
2019-02-20T14:44:21.111Z,1.00
2019-02-20T14:47:11.118Z,1.10
